createdAt,value
2023-05-18T00:00:37.240Z,0.00
2023-05-18T00:02:37.558Z,0.00
2023-05-18T00:04:38.069Z,0.00
2023-05-18T00:06:38.359Z,0.00
2023-05-18T00:08:38.699Z,0.00
2023-05-18T00:10:39.020Z,0.00
2023-05-18T00:12:39.327Z,0.00
2023-05-18T00:14:39.615Z,0.00
2023-05-18T00:16:40.183Z,0.00
2023-05-18T00:18:40.582Z,0.00
2023-05-18T00:20:41.003Z,0.00
2023-05-18T00:22:41.231Z,0.00
2023-05-18T00:24:41.553Z,0.00
2023-05-18T00:26:41.859Z,0.00
2023-05-18T00:28:42.214Z,0.00
2023-05-18T00:30:42.538Z,0.00
2023-05-18T00:32:42.912Z,0.00
2023-05-18T00:34:43.245Z,0.00
2023-05-18T00:36:43.661Z,0.00
2023-05-18T00:38:43.961Z,0.00
2023-05-18T00:40:44.237Z,0.00
2023-05-18T00:42:44.654Z,0.00
2023-05-18T00:44:49.766Z,0.00
2023-05-18T00:46:50.168Z,0.00
2023-05-18T00:48:50.438Z,0.00
2023-05-18T00:50:50.827Z,0.00
2023-05-18T00:52:51.096Z,0.00
2023-05-18T00:54:51.460Z,0.00
2023-05-18T00:56:51.776Z,0.00
2023-05-18T00:58:52.140Z,0.00
2023-05-18T01:00:52.478Z,0.00
2023-05-18T01:02:53.134Z,0.00
2023-05-18T01:04:53.548Z,0.00
2023-05-18T01:06:53.843Z,0.00
2023-05-18T01:08:54.165Z,0.00
2023-05-18T01:10:54.491Z,0.00
2023-05-18T01:12:54.788Z,0.00
2023-05-18T01:14:55.132Z,0.00
2023-05-18T01:16:55.441Z,0.00
2023-05-18T01:18:55.760Z,0.00
2023-05-18T01:20:56.065Z,0.00
2023-05-18T01:22:56.424Z,0.00
2023-05-18T01:24:56.702Z,0.00
2023-05-18T01:26:57.098Z,0.00
2023-05-18T01:28:57.385Z,0.00
2023-05-18T01:30:57.732Z,0.00
2023-05-18T01:32:58.099Z,0.00
2023-05-18T01:34:58.418Z,0.00
2023-05-18T01:36:58.710Z,0.00
2023-05-18T01:38:58.970Z,0.00
2023-05-18T01:40:59.296Z,0.00
2023-05-18T01:42:59.769Z,0.00
2023-05-18T01:45:00.327Z,0.00
2023-05-18T01:47:00.597Z,0.00
2023-05-18T01:49:00.904Z,0.00
2023-05-18T01:51:01.198Z,0.00
2023-05-18T01:53:01.537Z,0.00
2023-05-18T01:55:01.840Z,0.00
2023-05-18T01:57:02.210Z,0.00
2023-05-18T01:59:02.493Z,0.00
2023-05-18T02:01:02.833Z,0.00
2023-05-18T02:03:03.215Z,0.00
2023-05-18T02:05:03.473Z,0.00
2023-05-18T02:07:03.846Z,0.00
2023-05-18T02:09:04.122Z,0.00
2023-05-18T02:11:04.419Z,0.00
2023-05-18T02:13:04.787Z,0.00
2023-05-18T02:15:05.151Z,0.00
2023-05-18T02:17:05.532Z,0.00
2023-05-18T02:19:05.858Z,0.00
2023-05-18T02:21:06.270Z,0.00
2023-05-18T02:23:06.509Z,0.00
2023-05-18T02:25:06.927Z,0.00
2023-05-18T02:27:07.244Z,0.00
2023-05-18T02:29:07.735Z,0.00
2023-05-18T02:31:08.083Z,0.00
2023-05-18T02:33:08.357Z,0.00
2023-05-18T02:35:08.659Z,0.00
2023-05-18T02:37:08.963Z,0.00
2023-05-18T02:39:09.384Z,0.00
2023-05-18T02:41:09.725Z,0.00
2023-05-18T02:43:09.963Z,0.00
2023-05-18T02:45:10.393Z,0.00
2023-05-18T02:47:10.736Z,0.00
2023-05-18T02:49:11.034Z,0.00
2023-05-18T02:51:11.300Z,0.00
2023-05-18T02:53:11.803Z,0.00
2023-05-18T02:55:12.292Z,0.00
2023-05-18T02:57:12.762Z,0.00
2023-05-18T02:59:13.029Z,0.00
2023-05-18T03:01:13.441Z,0.00
2023-05-18T03:03:13.979Z,0.00
2023-05-18T03:05:14.297Z,0.00
2023-05-18T03:07:14.728Z,0.00
2023-05-18T03:09:15.085Z,0.00
2023-05-18T03:11:15.380Z,0.00
2023-05-18T03:13:15.821Z,0.00
2023-05-18T03:15:16.250Z,0.00
2023-05-18T03:17:16.533Z,0.00
2023-05-18T03:19:16.990Z,0.00
2023-05-18T03:21:17.518Z,0.00
2023-05-18T03:23:17.915Z,0.00
2023-05-18T03:25:18.301Z,0.00
2023-05-18T03:27:18.571Z,0.00
2023-05-18T03:29:18.912Z,0.00
2023-05-18T03:31:19.485Z,0.00
2023-05-18T03:33:20.187Z,0.00
2023-05-18T03:35:20.532Z,0.00
2023-05-18T03:37:20.944Z,0.00
2023-05-18T03:39:21.240Z,5.62
2023-05-18T03:41:21.668Z,5.62
2023-05-18T03:43:22.052Z,5.62
2023-05-18T03:45:22.303Z,5.62
2023-05-18T03:47:22.605Z,5.62
2023-05-18T03:49:23.008Z,11.25
2023-05-18T03:51:23.247Z,11.25
2023-05-18T03:53:23.590Z,11.25
2023-05-18T03:55:23.890Z,11.25
2023-05-18T03:57:24.380Z,16.88
2023-05-18T03:59:24.789Z,16.88
2023-05-18T04:01:25.126Z,16.88
2023-05-18T04:03:25.470Z,22.50
2023-05-18T04:05:25.874Z,22.50
2023-05-18T04:07:26.211Z,28.12
2023-05-18T04:09:26.526Z,28.12
2023-05-18T04:11:26.804Z,33.75
2023-05-18T04:13:27.281Z,33.75
2023-05-18T04:15:27.574Z,33.75
2023-05-18T04:17:28.004Z,39.38
2023-05-18T04:19:28.443Z,39.38
2023-05-18T04:21:29.047Z,45.00
2023-05-18T04:23:29.302Z,45.00
2023-05-18T04:25:29.795Z,50.62
2023-05-18T04:27:30.148Z,50.62
2023-05-18T04:29:30.767Z,50.62
2023-05-18T04:31:31.115Z,56.25
2023-05-18T04:33:31.416Z,56.25
2023-05-18T04:35:32.063Z,56.25
2023-05-18T04:37:32.567Z,61.88
2023-05-18T04:39:32.882Z,61.88
2023-05-18T04:41:33.221Z,67.50
2023-05-18T04:43:33.504Z,67.50
2023-05-18T04:45:34.060Z,67.50
2023-05-18T04:47:34.484Z,73.12
2023-05-18T04:49:34.791Z,73.12
2023-05-18T04:51:35.066Z,73.12
2023-05-18T04:53:35.455Z,78.75
2023-05-18T04:55:35.742Z,78.75
2023-05-18T04:57:36.075Z,78.75
2023-05-18T04:59:36.375Z,78.75
2023-05-18T05:01:36.731Z,84.38
2023-05-18T05:03:37.074Z,84.38
2023-05-18T05:05:37.547Z,84.38
2023-05-18T05:07:37.869Z,90.00
2023-05-18T05:09:38.287Z,90.00
2023-05-18T05:11:38.658Z,90.00
2023-05-18T05:13:38.973Z,90.00
2023-05-18T05:15:39.276Z,95.62
2023-05-18T05:17:39.719Z,95.62
2023-05-18T05:19:40.038Z,95.62
2023-05-18T05:21:40.347Z,95.62
2023-05-18T05:23:40.654Z,95.62
2023-05-18T05:25:41.001Z,95.62
2023-05-18T05:27:41.280Z,95.62
2023-05-18T05:29:41.570Z,101.25
2023-05-18T05:31:41.906Z,101.25
2023-05-18T05:33:42.189Z,101.25
2023-05-18T05:35:42.496Z,101.25
2023-05-18T05:37:42.913Z,101.25
2023-05-18T05:39:43.209Z,101.25
2023-05-18T05:41:43.551Z,101.25
2023-05-18T05:43:43.868Z,101.25
2023-05-18T05:45:44.174Z,106.88
2023-05-18T05:47:44.469Z,106.88
2023-05-18T05:49:44.851Z,106.88
2023-05-18T05:51:45.137Z,106.88
2023-05-18T05:53:45.450Z,106.88
2023-05-18T05:55:45.839Z,106.88
2023-05-18T05:57:46.238Z,112.50
2023-05-18T05:59:46.545Z,112.50
2023-05-18T06:01:46.877Z,112.50
2023-05-18T06:03:47.196Z,112.50
2023-05-18T06:05:47.419Z,112.50
2023-05-18T06:07:47.814Z,112.50
2023-05-18T06:09:48.159Z,112.50
2023-05-18T06:11:48.636Z,118.12
2023-05-18T06:13:49.080Z,118.12
2023-05-18T06:15:49.366Z,118.12
2023-05-18T06:17:49.810Z,118.12
2023-05-18T06:19:50.155Z,118.12
2023-05-18T06:21:50.443Z,118.12
2023-05-18T06:23:50.737Z,118.12
2023-05-18T06:25:51.104Z,118.12
2023-05-18T06:27:51.324Z,118.12
2023-05-18T06:29:51.663Z,123.75
2023-05-18T06:31:52.017Z,123.75
2023-05-18T06:33:52.282Z,123.75
2023-05-18T06:35:52.607Z,123.75
2023-05-18T06:37:52.913Z,123.75
2023-05-18T06:39:53.171Z,123.75
2023-05-18T06:41:53.511Z,123.75
2023-05-18T06:43:53.766Z,129.38
2023-05-18T06:45:54.108Z,129.38
2023-05-18T06:47:54.516Z,129.38
2023-05-18T06:49:54.825Z,129.38
2023-05-18T06:51:55.111Z,129.38
2023-05-18T06:53:55.409Z,129.38
2023-05-18T06:55:55.703Z,135.00
2023-05-18T06:57:56.012Z,135.00
2023-05-18T06:59:56.259Z,135.00
2023-05-18T07:01:56.687Z,135.00
2023-05-18T07:03:57.053Z,140.62
2023-05-18T07:05:57.415Z,140.62
2023-05-18T07:07:57.780Z,140.62
2023-05-18T07:09:58.056Z,140.62
2023-05-18T07:11:58.396Z,140.62
2023-05-18T07:13:58.735Z,146.25
2023-05-18T07:15:59.091Z,146.25
2023-05-18T07:17:59.455Z,146.25
2023-05-18T07:19:59.753Z,146.25
2023-05-18T07:22:00.128Z,146.25
2023-05-18T07:24:00.420Z,146.25
2023-05-18T07:26:00.888Z,146.25
2023-05-18T07:28:01.180Z,151.88
2023-05-18T07:30:01.567Z,151.88
2023-05-18T07:32:01.983Z,151.88
2023-05-18T07:34:02.359Z,151.88
2023-05-18T07:36:02.678Z,151.88
2023-05-18T07:38:02.993Z,151.88
2023-05-18T07:40:03.380Z,151.88
2023-05-18T07:42:03.681Z,151.88
2023-05-18T07:44:04.130Z,151.88
2023-05-18T07:46:04.388Z,151.88
2023-05-18T07:48:04.731Z,151.88
2023-05-18T07:50:05.402Z,151.88
2023-05-18T07:52:05.682Z,151.88
2023-05-18T07:54:06.013Z,151.88
2023-05-18T07:56:06.301Z,151.88
2023-05-18T07:58:06.737Z,151.88
2023-05-18T08:00:07.005Z,151.88
2023-05-18T08:02:07.335Z,151.88
2023-05-18T08:04:07.794Z,157.50
2023-05-18T08:06:08.278Z,157.50
2023-05-18T08:08:08.562Z,157.50
2023-05-18T08:10:08.874Z,157.50
2023-05-18T08:12:09.205Z,151.88
2023-05-18T08:14:14.363Z,157.50
2023-05-18T08:16:14.688Z,157.50
2023-05-18T08:18:15.128Z,157.50
2023-05-18T08:20:15.456Z,163.12
2023-05-18T08:22:15.751Z,174.38
2023-05-18T08:24:16.061Z,168.75
2023-05-18T08:26:16.349Z,163.12
2023-05-18T08:28:16.606Z,163.12
2023-05-18T08:30:17.231Z,163.12
2023-05-18T08:32:17.563Z,163.12
2023-05-18T08:34:17.941Z,168.75
2023-05-18T08:36:18.193Z,168.75
2023-05-18T08:38:18.581Z,191.25
2023-05-18T08:40:18.881Z,213.75
2023-05-18T08:42:19.163Z,208.12
2023-05-18T08:44:19.460Z,202.50
2023-05-18T08:46:19.777Z,202.50
2023-05-18T08:48:20.168Z,191.25
2023-05-18T08:50:22.101Z,191.25
2023-05-18T08:52:24.484Z,236.25
2023-05-18T08:54:24.833Z,264.38
2023-05-18T08:56:25.104Z,264.38
2023-05-18T08:58:25.400Z,230.62
2023-05-18T09:00:25.738Z,247.50
2023-05-18T09:02:26.128Z,258.75
2023-05-18T09:04:26.513Z,286.88
2023-05-18T09:06:26.836Z,253.12
2023-05-18T09:08:27.115Z,236.25
2023-05-18T09:10:27.518Z,270.00
2023-05-18T09:12:27.818Z,286.88
2023-05-18T09:14:28.181Z,225.00
2023-05-18T09:16:28.491Z,253.12
2023-05-18T09:18:28.866Z,253.12
2023-05-18T09:20:29.151Z,264.38
2023-05-18T09:22:29.467Z,236.25
2023-05-18T09:24:29.740Z,258.75
2023-05-18T09:26:30.005Z,241.88
2023-05-18T09:28:30.328Z,247.50
2023-05-18T09:30:30.657Z,253.12
2023-05-18T09:32:30.994Z,286.88
2023-05-18T09:34:31.308Z,270.00
2023-05-18T09:36:31.549Z,253.12
2023-05-18T09:38:31.869Z,247.50
2023-05-18T09:40:32.174Z,219.38
2023-05-18T09:42:32.414Z,213.75
2023-05-18T09:44:32.824Z,241.88
2023-05-18T09:46:33.169Z,292.50
2023-05-18T09:48:33.438Z,292.50
2023-05-18T09:50:33.787Z,258.75
2023-05-18T09:52:34.054Z,236.25
2023-05-18T09:54:34.442Z,219.38
2023-05-18T09:56:34.667Z,213.75
2023-05-18T09:58:35.070Z,185.62
2023-05-18T10:00:35.372Z,236.25
2023-05-18T10:02:35.691Z,241.88
2023-05-18T10:04:36.066Z,281.25
2023-05-18T10:06:36.350Z,303.75
2023-05-18T10:08:36.657Z,292.50
2023-05-18T10:10:37.024Z,258.75
2023-05-18T10:12:37.353Z,253.12
2023-05-18T10:14:37.659Z,264.38
2023-05-18T10:16:37.975Z,264.38
2023-05-18T10:18:38.374Z,258.75
2023-05-18T10:20:38.673Z,258.75
2023-05-18T10:22:38.988Z,225.00
2023-05-18T10:24:39.340Z,281.25
2023-05-18T10:26:39.698Z,264.38
2023-05-18T10:28:39.973Z,191.25
2023-05-18T10:30:40.306Z,191.25
2023-05-18T10:32:40.661Z,253.12
2023-05-18T10:34:40.954Z,253.12
2023-05-18T10:36:41.250Z,247.50
2023-05-18T10:38:41.560Z,247.50
2023-05-18T10:40:41.889Z,253.12
2023-05-18T10:42:42.243Z,253.12
2023-05-18T10:44:42.558Z,253.12
2023-05-18T10:46:42.900Z,241.88
2023-05-18T10:48:43.240Z,241.88
2023-05-18T10:50:43.588Z,236.25
2023-05-18T10:52:43.914Z,236.25
2023-05-18T10:54:44.232Z,236.25
2023-05-18T10:56:44.583Z,236.25
2023-05-18T10:58:44.874Z,236.25
2023-05-18T11:00:45.153Z,236.25
2023-05-18T11:02:45.476Z,241.88
2023-05-18T11:04:45.797Z,236.25
2023-05-18T11:06:47.182Z,247.50
2023-05-18T11:08:47.498Z,270.00
2023-05-18T11:10:47.831Z,264.38
2023-05-18T11:12:48.147Z,258.75
2023-05-18T11:14:48.473Z,140.62
2023-05-18T11:16:48.980Z,163.12
2023-05-18T11:18:49.481Z,202.50
2023-05-18T11:20:49.947Z,286.88
2023-05-18T11:22:50.255Z,315.00
2023-05-18T11:24:50.530Z,337.50
2023-05-18T11:26:50.885Z,320.62
2023-05-18T11:28:51.215Z,292.50
2023-05-18T11:30:51.560Z,270.00
2023-05-18T11:32:51.941Z,275.62
2023-05-18T11:34:52.287Z,202.50
2023-05-18T11:36:52.590Z,303.75
2023-05-18T11:38:53.002Z,298.12
2023-05-18T11:40:53.272Z,298.12
2023-05-18T11:42:53.594Z,298.12
2023-05-18T11:44:53.901Z,292.50
2023-05-18T11:46:54.355Z,292.50
2023-05-18T11:48:54.647Z,292.50
2023-05-18T11:50:54.970Z,292.50
2023-05-18T11:52:55.261Z,298.12
2023-05-18T11:54:55.578Z,213.75
2023-05-18T11:56:55.878Z,219.38
2023-05-18T11:58:56.129Z,157.50
2023-05-18T12:00:56.472Z,123.75
2023-05-18T12:02:57.045Z,112.50
2023-05-18T12:04:57.470Z,236.25
2023-05-18T12:06:57.788Z,247.50
2023-05-18T12:08:58.255Z,236.25
2023-05-18T12:10:58.703Z,247.50
2023-05-18T12:12:59.014Z,253.12
2023-05-18T12:14:59.260Z,253.12
2023-05-18T12:16:59.710Z,236.25
2023-05-18T12:19:00.018Z,230.62
2023-05-18T12:21:00.343Z,230.62
2023-05-18T12:23:00.629Z,225.00
2023-05-18T12:25:00.874Z,236.25
2023-05-18T12:27:01.183Z,236.25
2023-05-18T12:29:01.481Z,230.62
2023-05-18T12:31:01.820Z,225.00
2023-05-18T12:33:02.174Z,230.62
2023-05-18T12:35:02.513Z,230.62
2023-05-18T12:37:02.791Z,241.88
2023-05-18T12:39:03.254Z,264.38
2023-05-18T12:41:03.553Z,281.25
2023-05-18T12:43:03.846Z,270.00
2023-05-18T12:45:06.339Z,253.12
2023-05-18T12:47:07.412Z,241.88
2023-05-18T12:49:07.756Z,219.38
2023-05-18T12:51:08.220Z,202.50
2023-05-18T12:53:08.503Z,236.25
2023-05-18T12:55:08.802Z,253.12
2023-05-18T12:57:09.142Z,258.75
2023-05-18T12:59:09.482Z,258.75
2023-05-18T13:01:09.934Z,264.38
2023-05-18T13:03:14.495Z,258.75
2023-05-18T13:05:15.239Z,253.12
2023-05-18T13:07:15.639Z,247.50
2023-05-18T13:09:15.885Z,247.50
2023-05-18T13:11:16.241Z,247.50
2023-05-18T13:13:16.471Z,247.50
2023-05-18T13:15:17.057Z,247.50
2023-05-18T13:17:17.371Z,247.50
2023-05-18T13:19:17.761Z,247.50
2023-05-18T13:21:18.109Z,247.50
2023-05-18T13:23:18.419Z,247.50
2023-05-18T13:25:18.766Z,253.12
2023-05-18T13:27:19.064Z,253.12
2023-05-18T13:29:19.352Z,253.12
2023-05-18T13:31:19.639Z,185.62
2023-05-18T13:33:20.040Z,253.12
2023-05-18T13:35:20.283Z,219.38
2023-05-18T13:37:20.621Z,185.62
2023-05-18T13:39:20.913Z,253.12
2023-05-18T13:41:21.325Z,258.75
2023-05-18T13:43:21.605Z,253.12
2023-05-18T13:45:21.907Z,253.12
2023-05-18T13:47:22.187Z,258.75
2023-05-18T13:49:22.596Z,258.75
2023-05-18T13:51:22.887Z,191.25
2023-05-18T13:53:23.253Z,101.25
2023-05-18T13:55:23.575Z,95.62
2023-05-18T13:57:23.849Z,258.75
2023-05-18T13:59:24.154Z,253.12
2023-05-18T14:01:24.528Z,253.12
2023-05-18T14:03:25.033Z,253.12
2023-05-18T14:05:25.371Z,253.12
2023-05-18T14:07:25.652Z,258.75
2023-05-18T14:09:26.042Z,264.38
2023-05-18T14:11:26.311Z,264.38
2023-05-18T14:13:26.718Z,264.38
2023-05-18T14:15:26.952Z,264.38
2023-05-18T14:17:27.293Z,270.00
2023-05-18T14:19:27.772Z,101.25
2023-05-18T14:21:28.106Z,264.38
2023-05-18T14:23:28.419Z,258.75
2023-05-18T14:25:28.781Z,258.75
2023-05-18T14:27:29.075Z,258.75
2023-05-18T14:29:29.430Z,264.38
2023-05-18T14:31:29.734Z,281.25
2023-05-18T14:33:29.998Z,298.12
2023-05-18T14:35:30.392Z,286.88
2023-05-18T14:37:30.763Z,275.62
2023-05-18T14:39:31.083Z,286.88
2023-05-18T14:41:31.360Z,281.25
2023-05-18T14:43:31.701Z,275.62
2023-05-18T14:45:32.019Z,236.25
2023-05-18T14:47:32.327Z,275.62
2023-05-18T14:49:32.612Z,298.12
2023-05-18T14:51:32.878Z,303.75
2023-05-18T14:53:33.194Z,309.38
2023-05-18T14:55:33.831Z,286.88
2023-05-18T14:57:34.129Z,281.25
2023-05-18T14:59:34.486Z,270.00
2023-05-18T15:01:34.764Z,264.38
2023-05-18T15:03:35.129Z,258.75
2023-05-18T15:05:35.545Z,264.38
2023-05-18T15:07:35.789Z,253.12
2023-05-18T15:09:36.287Z,253.12
2023-05-18T15:11:36.651Z,253.12
2023-05-18T15:13:36.947Z,253.12
2023-05-18T15:15:37.392Z,264.38
2023-05-18T15:17:37.801Z,258.75
2023-05-18T15:19:38.194Z,180.00
2023-05-18T15:21:38.512Z,253.12
2023-05-18T15:23:38.825Z,253.12
2023-05-18T15:25:39.723Z,135.00
2023-05-18T15:27:40.091Z,112.50
2023-05-18T15:29:40.724Z,118.12
2023-05-18T15:31:41.053Z,219.38
2023-05-18T15:33:41.483Z,258.75
2023-05-18T15:35:41.780Z,258.75
2023-05-18T15:37:42.101Z,258.75
2023-05-18T15:39:42.433Z,253.12
2023-05-18T15:41:42.737Z,258.75
2023-05-18T15:43:43.029Z,258.75
2023-05-18T15:45:43.522Z,264.38
2023-05-18T15:47:43.880Z,264.38
2023-05-18T15:49:44.178Z,275.62
2023-05-18T15:51:44.449Z,298.12
2023-05-18T15:53:44.760Z,303.75
2023-05-18T15:55:45.103Z,303.75
2023-05-18T15:57:45.377Z,281.25
2023-05-18T15:59:45.752Z,241.88
2023-05-18T16:01:46.100Z,258.75
2023-05-18T16:03:46.605Z,253.12
2023-05-18T16:05:46.937Z,185.62
2023-05-18T16:07:47.223Z,241.88
2023-05-18T16:09:47.548Z,241.88
2023-05-18T16:11:47.810Z,236.25
2023-05-18T16:13:48.164Z,241.88
2023-05-18T16:15:48.462Z,241.88
2023-05-18T16:17:48.813Z,270.00
2023-05-18T16:19:49.102Z,264.38
2023-05-18T16:21:49.378Z,253.12
2023-05-18T16:23:49.770Z,236.25
2023-05-18T16:25:50.041Z,225.00
2023-05-18T16:27:50.340Z,123.75
2023-05-18T16:29:50.733Z,90.00
2023-05-18T16:31:51.098Z,95.62
2023-05-18T16:33:51.590Z,101.25
2023-05-18T16:35:51.848Z,225.00
2023-05-18T16:37:52.201Z,230.62
2023-05-18T16:39:52.442Z,230.62
2023-05-18T16:41:52.867Z,213.75
2023-05-18T16:43:58.022Z,202.50
2023-05-18T16:45:58.318Z,191.25
2023-05-18T16:47:58.650Z,191.25
2023-05-18T16:49:58.909Z,180.00
2023-05-18T16:51:59.233Z,180.00
2023-05-18T16:53:59.544Z,180.00
2023-05-18T16:55:59.862Z,180.00
2023-05-18T16:58:00.155Z,168.75
2023-05-18T17:00:00.451Z,146.25
2023-05-18T17:02:00.772Z,129.38
2023-05-18T17:04:01.111Z,118.12
2023-05-18T17:06:01.862Z,118.12
2023-05-18T17:08:02.259Z,106.88
2023-05-18T17:10:02.574Z,95.62
2023-05-18T17:12:02.870Z,84.38
2023-05-18T17:14:03.160Z,84.38
2023-05-18T17:16:03.510Z,78.75
2023-05-18T17:18:03.816Z,78.75
2023-05-18T17:20:04.131Z,84.38
2023-05-18T17:22:04.678Z,84.38
2023-05-18T17:24:08.184Z,84.38
2023-05-18T17:26:08.420Z,73.12
2023-05-18T17:28:08.719Z,67.50
2023-05-18T17:30:09.078Z,67.50
2023-05-18T17:32:09.350Z,67.50
2023-05-18T17:34:09.653Z,67.50
2023-05-18T17:36:10.959Z,73.12
2023-05-18T17:38:11.510Z,73.12
2023-05-18T17:40:11.957Z,67.50
2023-05-18T17:42:13.263Z,61.88
2023-05-18T17:44:13.503Z,56.25
2023-05-18T17:46:13.877Z,101.25
2023-05-18T17:48:14.278Z,95.62
2023-05-18T17:50:14.642Z,95.62
2023-05-18T17:52:14.985Z,95.62
2023-05-18T17:54:15.289Z,90.00
2023-05-18T17:56:15.637Z,90.00
2023-05-18T17:58:16.062Z,95.62
2023-05-18T18:00:16.409Z,95.62
2023-05-18T18:02:16.748Z,90.00
2023-05-18T18:04:17.135Z,84.38
2023-05-18T18:06:17.519Z,78.75
2023-05-18T18:08:17.995Z,67.50
2023-05-18T18:10:18.318Z,67.50
2023-05-18T18:12:18.590Z,61.88
2023-05-18T18:14:19.016Z,61.88
2023-05-18T18:16:19.417Z,56.25
2023-05-18T18:18:19.695Z,56.25
2023-05-18T18:20:20.123Z,50.62
2023-05-18T18:22:20.404Z,50.62
2023-05-18T18:24:25.579Z,45.00
2023-05-18T18:26:25.896Z,45.00
2023-05-18T18:28:26.257Z,45.00
2023-05-18T18:30:26.581Z,39.38
2023-05-18T18:32:26.944Z,39.38
2023-05-18T18:34:27.226Z,39.38
2023-05-18T18:36:27.553Z,33.75
2023-05-18T18:38:27.851Z,33.75
2023-05-18T18:41:10.768Z,28.12
2023-05-18T18:43:11.068Z,28.12
2023-05-18T18:45:11.475Z,28.12
2023-05-18T18:47:11.822Z,22.50
2023-05-18T18:49:12.156Z,22.50
2023-05-18T18:51:12.569Z,16.88
2023-05-18T18:53:12.828Z,16.88
2023-05-18T18:55:13.218Z,16.88
2023-05-18T18:57:13.500Z,11.25
2023-05-18T18:59:13.766Z,11.25
2023-05-18T19:01:14.212Z,5.62
2023-05-18T19:03:14.718Z,5.62
2023-05-18T19:05:19.750Z,5.62
2023-05-18T19:07:20.035Z,5.62
2023-05-18T19:09:20.352Z,5.62
2023-05-18T19:11:20.690Z,0.00
2023-05-18T19:13:21.000Z,0.00
2023-05-18T19:15:21.363Z,0.00
2023-05-18T19:17:21.906Z,0.00
2023-05-18T19:19:22.263Z,0.00
2023-05-18T19:21:22.670Z,0.00
2023-05-18T19:23:23.007Z,0.00
2023-05-18T19:25:23.412Z,0.00
2023-05-18T19:27:23.738Z,0.00
2023-05-18T19:29:24.014Z,0.00
2023-05-18T19:31:24.886Z,0.00
2023-05-18T19:33:25.391Z,0.00
2023-05-18T19:35:25.651Z,0.00
2023-05-18T19:37:26.661Z,0.00
2023-05-18T19:39:27.264Z,0.00
2023-05-18T19:41:28.068Z,0.00
2023-05-18T19:43:28.778Z,0.00
2023-05-18T19:45:29.262Z,0.00
2023-05-18T19:47:29.922Z,0.00
2023-05-18T19:49:30.366Z,0.00
2023-05-18T19:51:30.597Z,0.00
2023-05-18T19:53:30.998Z,0.00
2023-05-18T19:55:31.519Z,0.00
2023-05-18T19:57:32.005Z,0.00
2023-05-18T19:59:32.377Z,0.00
2023-05-18T20:01:32.791Z,0.00
2023-05-18T20:03:33.356Z,0.00
2023-05-18T20:05:34.434Z,0.00
2023-05-18T20:07:34.724Z,0.00
2023-05-18T20:09:35.083Z,0.00
2023-05-18T20:11:35.643Z,0.00
2023-05-18T20:13:35.891Z,0.00
2023-05-18T20:15:36.198Z,0.00
2023-05-18T20:17:36.497Z,0.00
2023-05-18T20:19:36.804Z,0.00
2023-05-18T20:21:37.200Z,0.00
2023-05-18T20:23:37.483Z,0.00
2023-05-18T20:25:37.947Z,0.00
2023-05-18T20:27:38.276Z,0.00
2023-05-18T20:29:38.556Z,0.00
2023-05-18T20:31:38.945Z,0.00
2023-05-18T20:33:39.300Z,0.00
2023-05-18T20:35:39.565Z,0.00
2023-05-18T20:37:39.939Z,0.00
2023-05-18T20:39:40.271Z,0.00
2023-05-18T20:41:40.793Z,0.00
2023-05-18T20:43:41.606Z,0.00
2023-05-18T20:45:42.858Z,0.00
2023-05-18T20:47:43.527Z,0.00
2023-05-18T20:49:45.166Z,0.00
2023-05-18T20:51:46.205Z,0.00
2023-05-18T20:53:46.701Z,0.00
2023-05-18T20:55:48.320Z,0.00
2023-05-18T20:57:49.811Z,0.00
2023-05-18T20:59:50.407Z,0.00
2023-05-18T21:01:52.151Z,0.00
2023-05-18T21:03:53.922Z,0.00
2023-05-18T21:05:54.508Z,0.00
2023-05-18T21:07:55.392Z,0.00
2023-05-18T21:09:56.937Z,0.00
2023-05-18T21:11:57.317Z,0.00
2023-05-18T21:13:57.588Z,0.00
2023-05-18T21:15:57.989Z,0.00
2023-05-18T21:17:58.345Z,0.00
2023-05-18T21:19:58.902Z,0.00
2023-05-18T21:21:59.336Z,0.00
2023-05-18T21:23:59.716Z,0.00
2023-05-18T21:27:07.542Z,0.00
2023-05-18T21:29:08.852Z,0.00
2023-05-18T21:32:11.178Z,0.00
2023-05-18T21:34:11.859Z,0.00
2023-05-18T21:37:37.318Z,0.00
2023-05-18T21:40:26.077Z,0.00
2023-05-18T21:42:26.839Z,0.00
2023-05-18T21:44:27.431Z,0.00
2023-05-18T21:46:28.059Z,0.00
2023-05-18T21:48:28.426Z,0.00
2023-05-18T21:50:28.961Z,0.00
2023-05-18T21:52:29.840Z,0.00
2023-05-18T21:54:32.680Z,0.00
2023-05-18T21:57:20.508Z,0.00
2023-05-18T22:00:06.719Z,0.00
2023-05-18T22:03:00.666Z,0.00
2023-05-18T22:05:03.047Z,0.00
2023-05-18T22:07:03.665Z,0.00
2023-05-18T22:10:08.855Z,0.00
2023-05-18T22:12:56.709Z,0.00
2023-05-18T22:14:57.251Z,0.00
2023-05-18T22:17:45.230Z,0.00
2023-05-18T22:22:00.636Z,0.00
2023-05-18T22:24:57.010Z,0.00
2023-05-18T22:26:58.687Z,0.00
2023-05-18T22:28:59.026Z,0.00
2023-05-18T22:30:59.353Z,0.00
2023-05-18T22:32:59.695Z,0.00
2023-05-18T22:35:00.007Z,0.00
2023-05-18T22:37:00.332Z,0.00
2023-05-18T22:39:00.655Z,0.00
2023-05-18T22:41:01.088Z,0.00
2023-05-18T22:43:01.682Z,0.00
2023-05-18T22:45:02.007Z,0.00
2023-05-18T22:48:06.156Z,0.00
2023-05-18T22:50:07.205Z,0.00
2023-05-18T22:52:55.069Z,0.00
2023-05-18T22:55:52.420Z,0.00
2023-05-18T22:57:52.911Z,0.00
2023-05-18T22:59:55.231Z,0.00
2023-05-18T23:01:56.245Z,0.00
2023-05-18T23:03:56.793Z,0.00
2023-05-18T23:05:57.305Z,0.00
2023-05-18T23:07:57.849Z,0.00
2023-05-18T23:09:58.868Z,0.00
2023-05-18T23:11:59.394Z,0.00
2023-05-18T23:14:43.027Z,0.00
2023-05-18T23:16:43.644Z,0.00
2023-05-18T23:18:44.539Z,0.00
2023-05-18T23:20:45.001Z,0.00
2023-05-18T23:22:45.420Z,0.00
2023-05-18T23:24:45.705Z,0.00
2023-05-18T23:26:46.008Z,0.00
2023-05-18T23:28:46.381Z,0.00
2023-05-18T23:30:46.738Z,0.00
2023-05-18T23:32:47.190Z,0.00
2023-05-18T23:34:47.569Z,0.00
2023-05-18T23:36:47.878Z,0.00
2023-05-18T23:38:48.205Z,0.00
2023-05-18T23:40:48.624Z,0.00
2023-05-18T23:42:48.915Z,0.00
2023-05-18T23:44:49.283Z,0.00
2023-05-18T23:46:49.583Z,0.00
2023-05-18T23:48:49.869Z,0.00
2023-05-18T23:50:50.229Z,0.00
2023-05-18T23:52:50.559Z,0.00
2023-05-18T23:55:35.243Z,0.00
2023-05-18T23:58:26.113Z,0.00
